createdAt,value
2018-03-04T00:02:05.918Z,129.73
2018-03-04T00:04:33.416Z,127.60
2018-03-04T00:07:00.936Z,135.40
2018-03-04T00:09:28.435Z,146.50
2018-03-04T00:11:55.954Z,148.63
2018-03-04T00:14:23.446Z,149.20
2018-03-04T00:16:50.944Z,157.60
2018-03-04T00:19:19.247Z,158.53
2018-03-04T00:21:46.792Z,167.27
2018-03-04T00:24:14.294Z,156.07
2018-03-04T00:26:41.803Z,155.73
2018-03-04T00:29:09.287Z,136.90
2018-03-04T00:31:36.812Z,150.80
2018-03-04T00:34:05.106Z,159.37
2018-03-04T00:36:32.632Z,145.40
2018-03-04T00:39:00.135Z,144.43
2018-03-04T00:41:27.631Z,142.53
2018-03-04T00:43:55.134Z,150.67
2018-03-04T00:46:23.380Z,155.40
2018-03-04T00:48:50.894Z,150.67
2018-03-04T00:51:18.383Z,155.33
2018-03-04T00:53:45.908Z,153.87
2018-03-04T00:56:13.413Z,137.57
2018-03-04T00:58:40.917Z,154.87
2018-03-04T01:01:08.413Z,146.40
2018-03-04T01:03:35.916Z,145.60
2018-03-04T01:06:03.409Z,155.07
2018-03-04T01:08:30.917Z,152.60
2018-03-04T01:10:58.425Z,157.33
2018-03-04T01:13:25.922Z,143.67
2018-03-04T01:15:53.416Z,168.90
2018-03-04T01:18:20.898Z,159.40
2018-03-04T01:20:48.398Z,153.43
2018-03-04T01:23:15.889Z,168.73
2018-03-04T01:25:43.408Z,159.97
2018-03-04T01:28:10.902Z,168.83
2018-03-04T01:30:38.470Z,171.27
2018-03-04T01:33:05.991Z,163.33
2018-03-04T01:35:33.497Z,164.97
2018-03-04T01:38:01.019Z,162.07
2018-03-04T01:40:28.516Z,178.00
2018-03-04T01:42:56.028Z,168.63
2018-03-04T01:45:24.315Z,178.03
2018-03-04T01:47:53.429Z,178.20
2018-03-04T01:50:21.001Z,186.30
2018-03-04T01:52:48.540Z,170.00
2018-03-04T01:55:16.058Z,190.87
2018-03-04T01:57:43.568Z,176.63
2018-03-04T02:00:11.064Z,194.93
2018-03-04T02:02:38.580Z,179.17
2018-03-04T02:05:06.069Z,159.57
2018-03-04T02:07:33.564Z,169.33
2018-03-04T02:10:01.826Z,206.37
2018-03-04T02:12:29.320Z,161.53
2018-03-04T02:14:56.837Z,190.87
2018-03-04T02:17:24.337Z,165.80
2018-03-04T02:19:51.837Z,169.70
2018-03-04T02:22:19.340Z,153.43
2018-03-04T02:24:47.587Z,169.50
2018-03-04T02:27:15.261Z,177.47
2018-03-04T02:29:43.574Z,167.67
2018-03-04T02:32:11.072Z,164.03
2018-03-04T02:34:38.593Z,166.37
2018-03-04T02:37:06.083Z,165.13
2018-03-04T02:39:33.655Z,162.20
2018-03-04T02:42:01.197Z,149.20
2018-03-04T02:44:28.673Z,181.77
2018-03-04T02:46:56.266Z,163.43
2018-03-04T02:49:23.752Z,159.00
2018-03-04T02:51:51.264Z,152.07
2018-03-04T02:54:18.756Z,170.83
2018-03-04T02:56:46.267Z,178.07
2018-03-04T02:59:13.799Z,161.50
2018-03-04T03:01:41.293Z,172.77
2018-03-04T03:04:09.026Z,182.20
2018-03-04T03:06:36.516Z,166.03
2018-03-04T03:09:04.003Z,192.17
2018-03-04T03:11:32.296Z,164.03
2018-03-04T03:13:59.792Z,159.37
2018-03-04T03:16:27.312Z,167.33
2018-03-04T03:18:54.811Z,150.17
2018-03-04T03:21:22.295Z,157.30
2018-03-04T03:23:50.585Z,147.67
2018-03-04T03:26:18.075Z,151.77
2018-03-04T03:28:45.588Z,148.60
2018-03-04T03:31:13.863Z,152.70
2018-03-04T03:33:41.366Z,146.80
2018-03-04T03:36:08.868Z,166.70
2018-03-04T03:38:37.126Z,167.43
2018-03-04T03:41:04.651Z,159.07
2018-03-04T03:43:32.149Z,168.57
2018-03-04T03:45:59.632Z,173.07
2018-03-04T03:48:27.443Z,155.63
2018-03-04T03:50:54.938Z,166.97
2018-03-04T03:53:22.452Z,163.23
2018-03-04T03:55:50.221Z,171.40
2018-03-04T03:58:17.715Z,177.73
2018-03-04T04:00:45.259Z,183.83
2018-03-04T04:03:12.751Z,209.73
2018-03-04T04:05:41.029Z,187.57
2018-03-04T04:08:08.523Z,197.60
2018-03-04T04:10:36.033Z,196.93
2018-03-04T04:13:04.313Z,152.37
2018-03-04T04:15:32.564Z,201.47
2018-03-04T04:18:00.079Z,179.33
2018-03-04T04:20:27.567Z,241.93
2018-03-04T04:22:55.082Z,172.93
2018-03-04T04:25:22.612Z,191.00
2018-03-04T04:27:50.115Z,213.67
2018-03-04T04:30:17.624Z,196.50
2018-03-04T04:32:45.125Z,129.83
2018-03-04T04:35:13.328Z,115.13
2018-03-04T04:37:40.944Z,94.97
2018-03-04T04:40:08.750Z,90.53
2018-03-04T04:42:37.123Z,101.67
2018-03-04T04:45:04.619Z,84.57
2018-03-04T04:47:32.103Z,107.77
2018-03-04T04:49:59.600Z,96.67
2018-03-04T04:52:27.084Z,89.50
2018-03-04T04:54:54.603Z,105.33
2018-03-04T04:57:22.100Z,90.73
2018-03-04T04:59:49.584Z,108.83
2018-03-04T05:02:17.944Z,116.40
2018-03-04T05:04:45.444Z,122.90
2018-03-04T05:07:12.953Z,91.87
2018-03-04T05:09:40.447Z,94.40
2018-03-04T05:12:08.036Z,95.33
2018-03-04T05:14:35.548Z,92.40
2018-03-04T05:17:03.024Z,90.10
2018-03-04T05:19:30.569Z,84.13
2018-03-04T05:21:58.067Z,80.33
2018-03-04T05:24:25.572Z,92.60
2018-03-04T05:26:53.073Z,115.90
2018-03-04T05:29:20.561Z,103.23
2018-03-04T05:31:48.056Z,110.10
2018-03-04T05:34:16.302Z,78.97
2018-03-04T05:36:43.805Z,121.50
2018-03-04T05:39:11.292Z,96.87
2018-03-04T05:41:38.769Z,125.30
2018-03-04T05:44:06.263Z,114.13
2018-03-04T05:46:33.757Z,107.00
2018-03-04T05:49:01.269Z,101.50
2018-03-04T05:51:29.540Z,100.73
2018-03-04T05:53:57.043Z,74.93
2018-03-04T05:56:24.543Z,110.33
2018-03-04T05:58:52.043Z,86.63
2018-03-04T06:01:19.527Z,85.37
2018-03-04T06:03:47.038Z,96.23
2018-03-04T06:06:14.539Z,86.07
2018-03-04T06:08:43.047Z,89.07
2018-03-04T06:11:12.248Z,89.80
2018-03-04T06:13:39.726Z,94.13
2018-03-04T06:16:07.252Z,99.40
2018-03-04T06:18:34.773Z,102.50
2018-03-04T06:21:02.261Z,89.20
2018-03-04T06:23:29.751Z,81.67
2018-03-04T06:25:57.253Z,99.67
2018-03-04T06:28:24.771Z,85.97
2018-03-04T06:30:52.251Z,74.33
2018-03-04T06:33:19.741Z,88.93
2018-03-04T06:35:47.248Z,87.93
2018-03-04T06:38:15.703Z,74.07
2018-03-04T06:40:43.235Z,87.27
2018-03-04T06:43:10.719Z,78.07
2018-03-04T06:45:38.210Z,71.80
2018-03-04T06:48:06.477Z,73.20
2018-03-04T06:50:34.768Z,72.27
2018-03-04T06:53:03.026Z,43.07
2018-03-04T06:55:31.277Z,51.57
2018-03-04T06:57:58.771Z,50.43
2018-03-04T07:00:26.314Z,49.33
2018-03-04T07:02:54.595Z,44.50
2018-03-04T07:05:22.860Z,49.07
2018-03-04T07:07:50.357Z,54.87
2018-03-04T07:10:18.158Z,62.90
2018-03-04T07:12:46.238Z,42.23
2018-03-04T07:15:13.816Z,39.53
2018-03-04T07:17:41.380Z,50.43
2018-03-04T07:20:08.876Z,35.93
2018-03-04T07:22:36.405Z,32.17
2018-03-04T07:25:04.647Z,37.23
2018-03-04T07:27:32.909Z,41.27
2018-03-04T07:30:00.412Z,42.57
2018-03-04T07:32:28.686Z,41.73
2018-03-04T07:34:56.960Z,36.10
2018-03-04T07:37:25.215Z,29.37
2018-03-04T07:39:52.702Z,33.30
2018-03-04T07:42:20.241Z,48.50
2018-03-04T07:44:47.769Z,82.23
2018-03-04T07:47:15.249Z,55.30
2018-03-04T07:49:42.862Z,46.07
2018-03-04T07:52:10.384Z,79.93
2018-03-04T07:54:37.868Z,47.30
2018-03-04T07:57:05.372Z,54.93
2018-03-04T07:59:32.905Z,51.10
2018-03-04T08:02:01.106Z,44.37
2018-03-04T08:04:29.181Z,44.63
2018-03-04T08:06:56.675Z,33.47
2018-03-04T08:09:24.941Z,31.93
2018-03-04T08:11:52.446Z,31.07
2018-03-04T08:14:19.942Z,40.27
2018-03-04T08:16:47.452Z,41.67
2018-03-04T08:19:14.959Z,38.80
2018-03-04T08:21:42.481Z,45.53
2018-03-04T08:24:10.032Z,35.53
2018-03-04T08:26:49.279Z,32.30
2018-03-04T08:29:16.775Z,43.43
2018-03-04T08:31:44.259Z,33.77
2018-03-04T08:34:11.772Z,35.13
2018-03-04T08:36:39.246Z,32.37
2018-03-04T08:39:06.753Z,34.43
2018-03-04T08:41:34.265Z,34.27
2018-03-04T08:44:01.788Z,32.30
2018-03-04T08:46:29.303Z,30.67
2018-03-04T08:48:57.545Z,35.87
2018-03-04T08:51:25.041Z,35.83
2018-03-04T08:53:52.580Z,32.37
2018-03-04T08:56:20.844Z,32.43
2018-03-04T08:58:48.391Z,32.47
2018-03-04T09:01:15.880Z,44.47
2018-03-04T09:03:43.392Z,38.87
2018-03-04T09:06:10.895Z,34.37
2018-03-04T09:08:38.411Z,33.70
2018-03-04T09:11:05.908Z,30.87
2018-03-04T09:13:34.175Z,31.70
2018-03-04T09:16:01.681Z,35.73
2018-03-04T09:18:29.187Z,30.77
2018-03-04T09:20:56.688Z,31.77
2018-03-04T09:23:24.200Z,30.33
2018-03-04T09:25:51.729Z,28.27
2018-03-04T09:28:19.237Z,26.90
2018-03-04T09:30:46.808Z,28.27
2018-03-04T09:33:14.340Z,25.77
2018-03-04T09:35:42.602Z,25.17
2018-03-04T09:38:10.114Z,32.40
2018-03-04T09:40:37.700Z,29.87
2018-03-04T09:43:05.210Z,28.13
2018-03-04T09:45:32.766Z,32.10
2018-03-04T09:48:00.271Z,29.63
2018-03-04T09:50:27.748Z,29.73
2018-03-04T09:52:55.270Z,26.53
2018-03-04T09:55:22.988Z,29.50
2018-03-04T09:57:51.335Z,31.27
2018-03-04T10:00:18.838Z,31.17
2018-03-04T10:02:46.318Z,25.40
2018-03-04T10:05:13.843Z,28.67
2018-03-04T10:07:41.337Z,31.23
2018-03-04T10:10:08.834Z,34.57
2018-03-04T10:12:36.334Z,29.80
2018-03-04T10:15:04.633Z,27.20
2018-03-04T10:17:32.120Z,39.37
2018-03-04T10:19:59.633Z,31.83
2018-03-04T10:22:27.139Z,33.93
2018-03-04T10:24:54.864Z,26.07
2018-03-04T10:27:22.357Z,35.77
2018-03-04T10:29:49.868Z,33.23
2018-03-04T10:32:17.413Z,38.10
2018-03-04T10:34:45.721Z,33.30
2018-03-04T10:37:15.142Z,37.70
2018-03-04T10:39:42.676Z,41.90
2018-03-04T10:42:10.168Z,41.00
2018-03-04T10:44:37.656Z,41.50
2018-03-04T10:47:05.184Z,45.30
2018-03-04T10:49:32.722Z,41.10
2018-03-04T10:52:00.298Z,41.10
2018-03-04T10:54:27.998Z,39.17
2018-03-04T10:56:56.255Z,38.33
2018-03-04T10:59:23.744Z,39.47
2018-03-04T11:01:52.047Z,40.00
2018-03-04T11:04:19.541Z,37.90
2018-03-04T11:06:47.768Z,37.00
2018-03-04T11:09:15.268Z,35.90
2018-03-04T11:11:42.783Z,38.23
2018-03-04T11:14:10.261Z,36.50
2018-03-04T11:16:37.770Z,36.37
2018-03-04T11:19:05.288Z,41.47
2018-03-04T11:21:32.860Z,37.17
2018-03-04T11:24:00.375Z,40.37
2018-03-04T11:26:27.858Z,40.30
2018-03-04T11:28:55.371Z,35.57
2018-03-04T11:31:23.662Z,33.60
2018-03-04T11:33:51.187Z,40.17
2018-03-04T11:36:18.690Z,39.17
2018-03-04T11:38:46.624Z,34.83
2018-03-04T11:41:14.899Z,37.67
2018-03-04T11:43:43.186Z,40.67
2018-03-04T11:46:10.693Z,34.03
2018-03-04T11:48:38.183Z,40.07
2018-03-04T11:51:05.667Z,35.30
2018-03-04T11:53:33.164Z,35.70
2018-03-04T11:56:00.708Z,39.23
2018-03-04T11:58:28.182Z,30.67
2018-03-04T12:00:55.712Z,30.63
2018-03-04T12:03:23.202Z,30.57
2018-03-04T12:05:50.707Z,30.77
2018-03-04T12:08:18.987Z,31.00
2018-03-04T12:10:47.226Z,19.23
2018-03-04T12:13:14.726Z,17.33
2018-03-04T12:15:42.972Z,12.03
2018-03-04T12:18:10.476Z,15.47
2018-03-04T12:20:38.771Z,19.80
2018-03-04T12:23:06.288Z,20.47
2018-03-04T12:25:34.555Z,20.53
2018-03-04T12:28:02.057Z,23.30
2018-03-04T12:30:29.560Z,34.00
2018-03-04T12:32:57.836Z,24.80
2018-03-04T12:35:25.335Z,33.43
2018-03-04T12:37:52.850Z,32.80
2018-03-04T12:40:20.414Z,31.60
2018-03-04T12:42:48.698Z,37.63
2018-03-04T12:45:16.975Z,34.03
2018-03-04T12:47:45.243Z,27.03
2018-03-04T12:50:12.778Z,28.07
2018-03-04T12:52:40.272Z,28.70
2018-03-04T12:55:07.795Z,30.80
2018-03-04T12:57:35.278Z,31.50
2018-03-04T13:00:03.540Z,20.00
2018-03-04T13:02:31.075Z,17.43
2018-03-04T13:04:58.581Z,18.27
2018-03-04T13:07:26.896Z,20.70
2018-03-04T13:09:54.416Z,18.90
2018-03-04T13:12:22.667Z,22.73
2018-03-04T13:14:50.183Z,17.37
2018-03-04T13:17:17.711Z,23.10
2018-03-04T13:19:45.208Z,20.53
2018-03-04T13:22:12.695Z,22.40
2018-03-04T13:24:40.969Z,17.73
2018-03-04T13:27:08.450Z,21.83
2018-03-04T13:29:36.721Z,19.93
2018-03-04T13:32:05.019Z,19.63
2018-03-04T13:34:33.275Z,18.67
2018-03-04T13:37:00.798Z,18.70
2018-03-04T13:39:28.317Z,32.07
2018-03-04T13:41:55.825Z,22.60
2018-03-04T13:44:23.307Z,21.43
2018-03-04T13:46:51.572Z,28.23
2018-03-04T13:49:19.065Z,18.63
2018-03-04T13:51:46.540Z,19.30
2018-03-04T13:54:14.043Z,20.67
2018-03-04T13:56:41.539Z,17.53
2018-03-04T13:59:09.030Z,21.20
2018-03-04T14:01:37.361Z,25.83
2018-03-04T14:04:05.633Z,19.23
2018-03-04T14:06:33.906Z,19.70
2018-03-04T14:09:01.416Z,21.33
2018-03-04T14:11:28.976Z,25.00
2018-03-04T14:13:56.476Z,19.27
2018-03-04T14:16:24.007Z,26.27
2018-03-04T14:18:51.551Z,23.20
2018-03-04T14:21:19.059Z,19.97
2018-03-04T14:23:46.568Z,25.10
2018-03-04T14:26:14.058Z,26.27
2018-03-04T14:28:41.571Z,26.27
2018-03-04T14:31:09.094Z,22.70
2018-03-04T14:33:36.608Z,28.43
2018-03-04T14:36:04.100Z,28.23
2018-03-04T14:38:32.432Z,30.00
2018-03-04T14:40:59.911Z,42.50
2018-03-04T14:43:27.418Z,25.60
2018-03-04T14:45:54.891Z,27.23
2018-03-04T14:48:22.385Z,32.33
2018-03-04T14:50:49.870Z,29.43
2018-03-04T14:53:18.131Z,30.27
2018-03-04T14:55:45.640Z,27.73
2018-03-04T14:58:13.155Z,31.73
2018-03-04T15:00:40.659Z,30.83
2018-03-04T15:03:08.146Z,33.00
2018-03-04T15:05:35.649Z,34.07
2018-03-04T15:08:03.138Z,39.37
2018-03-04T15:10:30.699Z,31.90
2018-03-04T15:12:58.679Z,35.50
2018-03-04T15:15:26.260Z,36.57
2018-03-04T15:17:54.603Z,44.07
2018-03-04T15:20:22.304Z,39.83
2018-03-04T15:22:49.824Z,38.83
2018-03-04T15:25:17.350Z,44.23
2018-03-04T15:27:44.840Z,43.40
2018-03-04T15:30:12.359Z,37.67
2018-03-04T15:32:40.610Z,45.73
2018-03-04T15:35:08.097Z,50.50
2018-03-04T15:37:36.477Z,45.87
2018-03-04T15:40:03.958Z,46.60
2018-03-04T15:42:31.509Z,42.80
2018-03-04T15:44:59.012Z,60.07
2018-03-04T15:47:26.483Z,51.63
2018-03-04T15:49:54.066Z,58.17
2018-03-04T15:52:21.531Z,60.73
2018-03-04T15:54:49.044Z,67.10
2018-03-04T15:57:16.546Z,56.07
2018-03-04T15:59:44.097Z,73.43
2018-03-04T16:02:11.659Z,70.00
2018-03-04T16:04:39.151Z,65.90
2018-03-04T16:07:06.699Z,60.50
2018-03-04T16:09:34.176Z,61.47
2018-03-04T16:12:01.671Z,68.90
2018-03-04T16:14:29.973Z,73.70
2018-03-04T16:16:58.248Z,70.50
2018-03-04T16:19:25.763Z,66.53
2018-03-04T16:21:53.282Z,77.43
2018-03-04T16:24:21.217Z,68.93
2018-03-04T16:26:49.491Z,67.23
2018-03-04T16:29:17.744Z,68.40
2018-03-04T16:31:45.237Z,69.30
2018-03-04T16:34:12.784Z,69.30
2018-03-04T16:36:41.033Z,75.50
2018-03-04T16:39:08.543Z,72.93
2018-03-04T16:41:36.045Z,79.53
2018-03-04T16:44:05.085Z,64.63
2018-03-04T16:46:32.594Z,67.07
2018-03-04T16:49:00.100Z,72.63
2018-03-04T16:51:27.613Z,70.30
2018-03-04T16:53:58.453Z,58.33
2018-03-04T16:56:25.975Z,57.90
2018-03-04T16:58:53.529Z,76.57
2018-03-04T17:01:21.042Z,59.77
2018-03-04T17:03:49.335Z,78.03
2018-03-04T17:06:17.604Z,69.57
2018-03-04T17:08:45.909Z,74.97
2018-03-04T17:11:13.418Z,65.50
2018-03-04T17:13:40.912Z,71.60
2018-03-04T17:16:08.417Z,68.90
2018-03-04T17:18:35.931Z,73.67
2018-03-04T17:21:03.414Z,63.90
2018-03-04T17:23:30.927Z,61.77
2018-03-04T17:25:58.433Z,72.63
2018-03-04T17:28:25.933Z,61.40
2018-03-04T17:30:53.462Z,71.23
2018-03-04T17:33:20.962Z,63.57
2018-03-04T17:35:49.238Z,73.00
2018-03-04T17:38:16.759Z,67.73
2018-03-04T17:40:44.264Z,76.00
2018-03-04T17:43:11.822Z,68.93
2018-03-04T17:45:39.319Z,67.23
2018-03-04T17:48:06.821Z,70.00
2018-03-04T17:50:35.133Z,80.00
2018-03-04T17:53:02.659Z,81.50
2018-03-04T17:55:30.938Z,60.97
2018-03-04T17:57:59.195Z,73.60
2018-03-04T18:00:26.817Z,65.43
2018-03-04T18:02:54.352Z,75.27
2018-03-04T18:05:21.845Z,71.63
2018-03-04T18:07:49.709Z,71.77
2018-03-04T18:10:17.212Z,68.70
2018-03-04T18:12:44.744Z,75.53
2018-03-04T18:15:12.297Z,75.00
2018-03-04T18:17:39.782Z,72.93
2018-03-04T18:20:07.279Z,71.90
2018-03-04T18:22:34.766Z,70.13
2018-03-04T18:25:02.295Z,54.13
2018-03-04T18:27:38.230Z,61.33
2018-03-04T18:30:05.771Z,67.13
2018-03-04T18:32:34.035Z,59.57
2018-03-04T18:35:01.523Z,73.47
2018-03-04T18:37:29.827Z,68.37
2018-03-04T18:39:57.306Z,79.37
2018-03-04T18:42:24.815Z,66.53
2018-03-04T18:44:52.363Z,58.23
2018-03-04T18:47:20.644Z,63.43
2018-03-04T18:49:48.934Z,58.07
2018-03-04T18:52:17.203Z,62.23
2018-03-04T18:54:45.482Z,65.67
2018-03-04T18:57:12.960Z,63.43
2018-03-04T18:59:40.476Z,77.70
2018-03-04T19:02:07.997Z,70.23
2018-03-04T19:04:35.488Z,74.43
2018-03-04T19:07:03.013Z,64.23
2018-03-04T19:09:30.517Z,69.80
2018-03-04T19:11:58.089Z,66.00
2018-03-04T19:14:25.597Z,73.77
2018-03-04T19:16:53.154Z,65.17
2018-03-04T19:19:20.665Z,60.23
2018-03-04T19:21:48.316Z,67.57
2018-03-04T19:24:16.597Z,63.87
2018-03-04T19:26:44.091Z,61.60
2018-03-04T19:29:11.591Z,51.93
2018-03-04T19:31:39.087Z,58.17
2018-03-04T19:34:06.594Z,53.57
2018-03-04T19:36:34.137Z,57.80
2018-03-04T19:39:01.692Z,63.80
2018-03-04T19:41:29.186Z,61.97
2018-03-04T19:43:56.727Z,57.00
2018-03-04T19:46:24.249Z,64.17
2018-03-04T19:48:51.729Z,63.80
2018-03-04T19:51:19.232Z,56.03
2018-03-04T19:53:46.732Z,57.47
2018-03-04T19:56:14.277Z,58.33
2018-03-04T19:58:41.796Z,55.07
2018-03-04T20:01:10.109Z,53.67
2018-03-04T20:03:37.615Z,57.77
2018-03-04T20:06:05.101Z,40.90
2018-03-04T20:08:32.634Z,53.17
2018-03-04T20:11:00.128Z,55.30
2018-03-04T20:13:27.681Z,50.83
2018-03-04T20:15:55.192Z,44.00
2018-03-04T20:18:22.711Z,48.87
2018-03-04T20:20:50.252Z,46.37
2018-03-04T20:23:17.760Z,45.50
2018-03-04T20:25:45.308Z,52.97
2018-03-04T20:28:12.815Z,44.10
2018-03-04T20:30:40.327Z,33.60
2018-03-04T20:33:07.875Z,36.93
2018-03-04T20:35:36.927Z,40.83
2018-03-04T20:38:05.191Z,41.33
2018-03-04T20:40:32.719Z,38.77
2018-03-04T20:43:00.227Z,37.00
2018-03-04T20:45:28.772Z,43.77
2018-03-04T20:47:56.311Z,30.50
2018-03-04T20:50:23.811Z,37.27
2018-03-04T20:52:51.323Z,35.93
2018-03-04T20:55:22.668Z,31.00
2018-03-04T20:57:50.192Z,29.37
2018-03-04T21:00:17.835Z,31.87
2018-03-04T21:02:45.357Z,25.00
2018-03-04T21:05:12.883Z,25.97
2018-03-04T21:07:40.360Z,28.50
2018-03-04T21:10:07.918Z,21.40
2018-03-04T21:12:35.420Z,17.67
2018-03-04T21:15:02.911Z,23.57
2018-03-04T21:17:34.138Z,20.50
2018-03-04T21:20:02.225Z,23.70
2018-03-04T21:22:29.741Z,25.20
2018-03-04T21:24:57.227Z,24.53
2018-03-04T21:27:25.539Z,22.07
2018-03-04T21:29:53.097Z,22.50
2018-03-04T21:32:20.606Z,22.90
2018-03-04T21:34:48.166Z,26.90
2018-03-04T21:37:17.184Z,19.53
2018-03-04T21:39:45.483Z,26.97
2018-03-04T21:42:13.047Z,29.47
2018-03-04T21:44:41.270Z,28.90
2018-03-04T21:47:08.780Z,24.77
2018-03-04T21:49:36.276Z,28.03
2018-03-04T21:52:03.792Z,36.47
2018-03-04T21:54:31.282Z,32.03
2018-03-04T21:56:58.801Z,25.73
2018-03-04T21:59:26.307Z,27.40
2018-03-04T22:01:54.636Z,26.40
2018-03-04T22:04:22.147Z,35.97
2018-03-04T22:06:49.674Z,27.80
2018-03-04T22:09:17.164Z,25.10
2018-03-04T22:11:44.677Z,30.00
2018-03-04T22:14:12.195Z,28.60
2018-03-04T22:16:39.709Z,28.47
2018-03-04T22:19:07.234Z,21.83
2018-03-04T22:21:34.759Z,24.63
2018-03-04T22:24:02.263Z,27.37
2018-03-04T22:26:29.810Z,27.93
2018-03-04T22:28:57.309Z,25.90
2018-03-04T22:31:24.819Z,24.27
2018-03-04T22:33:52.326Z,32.83
2018-03-04T22:36:19.853Z,24.83
2018-03-04T22:38:47.331Z,23.73
2018-03-04T22:41:14.857Z,20.83
2018-03-04T22:43:42.363Z,19.20
2018-03-04T22:46:09.856Z,21.97
2018-03-04T22:48:37.383Z,20.43
2018-03-04T22:51:04.933Z,12.43
2018-03-04T22:53:32.439Z,16.90
2018-03-04T22:55:59.932Z,17.10
2018-03-04T22:58:27.416Z,11.83
2018-03-04T23:00:54.938Z,12.63
2018-03-04T23:03:22.422Z,14.93
2018-03-04T23:05:49.903Z,12.77
2018-03-04T23:08:17.436Z,12.13
2018-03-04T23:10:44.937Z,10.43
2018-03-04T23:13:13.240Z,11.67
2018-03-04T23:15:40.724Z,9.60
2018-03-04T23:18:08.970Z,9.37
2018-03-04T23:20:36.473Z,8.73
2018-03-04T23:23:03.941Z,9.37
2018-03-04T23:25:31.447Z,12.40
2018-03-04T23:27:58.933Z,10.83
2018-03-04T23:30:26.452Z,10.13
2018-03-04T23:32:53.959Z,9.97
2018-03-04T23:35:21.442Z,7.10
2018-03-04T23:37:49.720Z,10.20
2018-03-04T23:40:17.991Z,6.93
2018-03-04T23:42:46.239Z,8.27
2018-03-04T23:45:13.775Z,6.63
2018-03-04T23:47:41.268Z,6.70
2018-03-04T23:50:08.758Z,7.93
2018-03-04T23:52:36.287Z,7.23
2018-03-04T23:55:03.764Z,7.13
2018-03-04T23:57:32.035Z,6.33
